Time,TemperatureF,DewpointF,PressureIn,WindDirection,WindDirectionDegrees,WindSpeedMPH,WindSpeedGustMPH,Humidity,HourlyPrecipIn,Conditions,Clouds,dailyrainin,SoftwareType,DateUTC
2013-07-18 00:02:00,71.2,60.1,30.25,ENE,69,5.0,15.0,68,0.00,,,0.00,meteohub,2013-07-18 06:02:00,
2013-07-18 00:07:00,71.2,60.6,30.25,ENE,77,8.0,13.0,69,0.00,,,0.00,meteohub,2013-07-18 06:07:00,
2013-07-18 00:12:00,71.2,60.6,30.25,ENE,73,7.0,12.0,69,0.00,,,0.00,meteohub,2013-07-18 06:12:00,
2013-07-18 00:17:00,71.2,60.6,30.25,ENE,76,9.0,11.0,69,0.00,,,0.00,meteohub,2013-07-18 06:17:00,
2013-07-18 00:22:00,71.1,59.9,30.25,ENE,76,11.0,14.0,68,0.00,,,0.00,meteohub,2013-07-18 06:22:00,
2013-07-18 00:27:00,71.1,59.9,30.25,East,85,7.0,14.0,68,0.00,,,0.00,meteohub,2013-07-18 06:27:00,
2013-07-18 00:32:00,71.2,60.6,30.25,ENE,76,5.0,14.0,69,0.00,,,0.00,meteohub,2013-07-18 06:32:00,
2013-07-18 00:37:00,71.1,60.4,30.25,NE,45,4.0,14.0,69,0.00,,,0.00,meteohub,2013-07-18 06:37:00,
2013-07-18 00:42:00,71.1,60.4,30.24,ENE,63,5.0,10.0,69,0.00,,,0.00,meteohub,2013-07-18 06:42:00,
2013-07-18 00:47:00,71.1,60.4,30.25,ENE,65,9.0,10.0,69,0.00,,,0.00,meteohub,2013-07-18 06:47:00,
2013-07-18 00:52:00,70.9,60.6,30.24,NE,37,7.0,10.0,70,0.00,,,0.00,meteohub,2013-07-18 06:52:00,
2013-07-18 00:57:00,70.9,61.0,30.24,NE,42,2.0,10.0,71,0.00,,,0.00,meteohub,2013-07-18 06:57:00,
2013-07-18 01:02:00,70.5,61.0,30.24,North,9,3.0,10.0,72,0.00,,,0.00,meteohub,2013-07-18 07:02:00,
2013-07-18 01:07:00,70.2,61.2,30.24,NNE,12,2.0,8.0,73,0.00,,,0.00,meteohub,2013-07-18 07:07:00,
2013-07-18 01:12:00,70.0,61.3,30.24,NNE,18,4.0,8.0,74,0.00,,,0.00,meteohub,2013-07-18 07:12:00,
2013-07-18 01:17:00,69.8,61.9,30.24,NNE,22,4.0,8.0,76,0.00,,,0.00,meteohub,2013-07-18 07:17:00,
2013-07-18 01:22:00,69.4,62.2,30.24,NE,35,4.0,9.0,78,0.00,,,0.00,meteohub,2013-07-18 07:22:00,
2013-07-18 01:27:00,69.1,62.6,30.24,NE,37,0.0,9.0,80,0.00,,,0.00,meteohub,2013-07-18 07:27:00,
2013-07-18 01:32:00,68.7,62.6,30.24,NNE,17,3.0,9.0,81,0.00,,,0.00,meteohub,2013-07-18 07:32:00,
2013-07-18 01:37:00,68.4,63.0,30.23,NNE,13,7.0,7.0,83,0.00,,,0.00,meteohub,2013-07-18 07:37:00,
2013-07-18 01:42:00,67.6,62.6,30.23,North,9,3.0,7.0,84,0.00,,,0.00,meteohub,2013-07-18 07:42:00,
2013-07-18 01:47:00,67.5,62.8,30.23,NNE,27,4.0,7.0,85,0.00,,,0.00,meteohub,2013-07-18 07:47:00,
2013-07-18 01:52:00,67.5,63.1,30.23,NE,34,5.0,7.0,86,0.00,,,0.00,meteohub,2013-07-18 07:52:00,
2013-07-18 01:57:00,67.5,63.5,30.23,NNE,28,5.0,7.0,87,0.00,,,0.00,meteohub,2013-07-18 07:57:00,
2013-07-18 02:02:00,67.3,63.3,30.23,NNE,22,5.0,10.0,87,0.00,,,0.00,meteohub,2013-07-18 08:02:00,
2013-07-18 02:07:00,67.1,63.1,30.22,NNE,27,5.0,10.0,87,0.00,,,0.00,meteohub,2013-07-18 08:07:00,
2013-07-18 02:12:00,66.9,63.3,30.22,North,5,8.0,8.0,88,0.00,,,0.00,meteohub,2013-07-18 08:12:00,
2013-07-18 02:17:00,66.9,63.3,30.22,North,0,2.0,9.0,88,0.00,,,0.00,meteohub,2013-07-18 08:17:00,
2013-07-18 02:22:00,66.9,63.5,30.22,NNW,343,2.0,9.0,89,0.00,,,0.00,meteohub,2013-07-18 08:22:00,
2013-07-18 02:27:00,67.1,63.7,30.22,NNW,343,3.0,8.0,89,0.00,,,0.00,meteohub,2013-07-18 08:27:00,
2013-07-18 02:32:00,67.1,63.7,30.22,NNW,333,5.0,5.0,89,0.00,,,0.00,meteohub,2013-07-18 08:32:00,
2013-07-18 02:37:00,66.9,63.5,30.22,NNW,334,3.0,6.0,89,0.02,,,0.02,meteohub,2013-07-18 08:37:00,
2013-07-18 02:42:00,66.7,63.3,30.22,NNW,334,1.0,11.0,89,0.03,,,0.03,meteohub,2013-07-18 08:42:00,
2013-07-18 02:47:00,66.7,63.7,30.22,NNW,339,2.0,11.0,90,0.04,,,0.04,meteohub,2013-07-18 08:47:00,
2013-07-18 02:52:00,66.7,63.7,30.22,North,351,2.0,7.0,90,0.04,,,0.04,meteohub,2013-07-18 08:52:00,
2013-07-18 02:57:00,66.6,63.5,30.22,North,355,3.0,7.0,90,0.04,,,0.04,meteohub,2013-07-18 08:57:00,
2013-07-18 03:02:00,66.4,63.7,30.22,North,355,0.0,7.0,91,0.04,,,0.04,meteohub,2013-07-18 09:02:00,
2013-07-18 03:07:00,66.4,63.7,30.22,North,9,3.0,6.0,91,0.04,,,0.04,meteohub,2013-07-18 09:07:00,
2013-07-18 03:12:00,66.2,63.5,30.22,North,5,5.0,6.0,91,0.04,,,0.04,meteohub,2013-07-18 09:12:00,
2013-07-18 03:17:00,66.2,63.9,30.22,NNW,347,6.0,6.0,92,0.04,,,0.04,meteohub,2013-07-18 09:17:00,
2013-07-18 03:22:00,66.0,63.7,30.22,NNW,344,6.0,7.0,92,0.04,,,0.04,meteohub,2013-07-18 09:22:00,
2013-07-18 03:27:00,66.0,63.7,30.22,NNW,339,4.0,7.0,92,0.04,,,0.04,meteohub,2013-07-18 09:27:00,
2013-07-18 03:32:00,66.0,63.7,30.22,NNW,348,3.0,7.0,92,0.04,,,0.05,meteohub,2013-07-18 09:32:00,
2013-07-18 03:37:00,65.8,63.7,30.22,NNW,348,2.0,7.0,93,0.03,,,0.05,meteohub,2013-07-18 09:37:00,
2013-07-18 03:43:00,65.8,63.7,30.22,NNW,348,3.0,7.0,93,0.03,,,0.05,meteohub,2013-07-18 09:43:00,
2013-07-18 03:49:00,65.8,63.7,30.22,NNW,348,4.0,6.0,93,0.02,,,0.06,meteohub,2013-07-18 09:49:00,
2013-07-18 03:54:00,66.0,63.9,30.22,NNW,348,2.0,5.0,93,0.02,,,0.06,meteohub,2013-07-18 09:54:00,
2013-07-18 04:00:00,66.0,63.9,30.22,NNW,348,0.0,5.0,93,0.02,,,0.06,meteohub,2013-07-18 10:00:00,
2013-07-18 04:06:00,66.0,63.9,30.21,NNW,346,2.0,5.0,93,0.02,,,0.06,meteohub,2013-07-18 10:06:00,
2013-07-18 04:12:00,66.2,64.0,30.21,NNW,333,5.0,5.0,93,0.02,,,0.06,meteohub,2013-07-18 10:12:00,
2013-07-18 04:17:00,66.2,64.0,30.21,NNW,330,1.0,6.0,93,0.02,,,0.06,meteohub,2013-07-18 10:17:00,
2013-07-18 04:22:00,66.2,64.0,30.21,NNW,330,4.0,6.0,93,0.02,,,0.06,meteohub,2013-07-18 10:22:00,
2013-07-18 04:27:00,66.4,64.0,30.21,NNW,330,2.0,6.0,92,0.02,,,0.07,meteohub,2013-07-18 10:27:00,
2013-07-18 04:32:00,66.4,64.2,30.21,NNW,330,3.0,5.0,93,0.02,,,0.07,meteohub,2013-07-18 10:32:00,
2013-07-18 04:37:00,66.4,64.2,30.21,NNW,330,1.0,5.0,93,0.02,,,0.07,meteohub,2013-07-18 10:37:00,
2013-07-18 04:42:00,66.6,64.4,30.21,NNW,330,2.0,5.0,93,0.02,,,0.08,meteohub,2013-07-18 10:42:00,
2013-07-18 04:47:00,66.6,64.4,30.21,NNW,330,1.0,5.0,93,0.02,,,0.08,meteohub,2013-07-18 10:47:00,
2013-07-18 04:52:00,66.6,64.4,30.21,NNW,330,0.0,4.0,93,0.03,,,0.09,meteohub,2013-07-18 10:52:00,
2013-07-18 04:57:00,66.4,64.0,30.21,NNW,330,0.0,3.0,92,0.04,,,0.10,meteohub,2013-07-18 10:57:00,
2013-07-18 05:02:00,66.2,64.0,30.21,NNW,330,0.0,2.0,93,0.04,,,0.10,meteohub,2013-07-18 11:02:00,
2013-07-18 05:07:00,66.0,63.7,30.21,NE,37,3.0,3.0,92,0.05,,,0.11,meteohub,2013-07-18 11:07:00,
2013-07-18 05:12:00,66.0,63.7,30.21,NE,37,0.0,3.0,92,0.05,,,0.11,meteohub,2013-07-18 11:12:00,
2013-07-18 05:17:00,66.0,63.9,30.21,NE,37,0.0,3.0,93,0.06,,,0.12,meteohub,2013-07-18 11:17:00,
2013-07-18 05:22:00,66.0,63.9,30.21,NE,37,1.0,3.0,93,0.06,,,0.12,meteohub,2013-07-18 11:22:00,
2013-07-18 05:27:00,66.0,63.9,30.21,NE,37,0.0,3.0,93,0.05,,,0.12,meteohub,2013-07-18 11:27:00,
2013-07-18 05:32:00,66.0,63.9,30.21,NE,37,1.0,4.0,93,0.05,,,0.12,meteohub,2013-07-18 11:32:00,
2013-07-18 05:37:00,65.8,63.7,30.21,NE,37,2.0,4.0,93,0.05,,,0.13,meteohub,2013-07-18 11:37:00,
2013-07-18 05:42:00,65.8,63.7,30.21,NNW,344,3.0,4.0,93,0.05,,,0.13,meteohub,2013-07-18 11:42:00,
2013-07-18 05:48:00,65.7,63.5,30.21,North,350,3.0,5.0,93,0.06,,,0.14,meteohub,2013-07-18 11:48:00,
2013-07-18 05:54:00,65.7,63.5,30.20,North,350,3.0,5.0,93,0.05,,,0.14,meteohub,2013-07-18 11:54:00,
2013-07-18 05:59:00,65.7,63.5,30.20,North,350,0.0,5.0,93,0.04,,,0.14,meteohub,2013-07-18 11:59:00,
2013-07-18 06:05:00,65.8,63.5,30.20,ENE,62,2.0,5.0,92,0.04,,,0.14,meteohub,2013-07-18 12:05:00,
2013-07-18 06:11:00,66.2,63.5,30.20,ENE,57,3.0,8.0,91,0.02,,,0.14,meteohub,2013-07-18 12:11:00,
2013-07-18 06:17:00,66.4,63.7,30.20,North,0,4.0,8.0,91,0.02,,,0.14,meteohub,2013-07-18 12:17:00,
2013-07-18 06:22:00,66.0,63.3,30.20,North,0,2.0,8.0,91,0.02,,,0.14,meteohub,2013-07-18 12:22:00,
2013-07-18 06:27:00,66.0,63.7,30.21,NNW,336,3.0,7.0,92,0.02,,,0.14,meteohub,2013-07-18 12:27:00,
2013-07-18 06:32:00,66.0,63.7,30.21,NNW,329,5.0,7.0,92,0.02,,,0.14,meteohub,2013-07-18 12:32:00,
2013-07-18 06:37:00,66.0,63.7,30.21,NW,317,5.0,8.0,92,0.01,,,0.14,meteohub,2013-07-18 12:37:00,
2013-07-18 06:42:00,66.0,63.7,30.21,NW,305,5.0,8.0,92,0.01,,,0.14,meteohub,2013-07-18 12:42:00,
2013-07-18 06:47:00,66.0,63.7,30.21,NW,305,2.0,7.0,92,0.00,,,0.14,meteohub,2013-07-18 12:47:00,
2013-07-18 06:52:00,66.0,63.9,30.21,NW,305,3.0,6.0,93,0.00,,,0.14,meteohub,2013-07-18 12:52:00,
2013-07-18 06:57:00,66.0,63.7,30.21,NW,305,1.0,6.0,92,0.00,,,0.14,meteohub,2013-07-18 12:57:00,
2013-07-18 07:02:00,66.4,64.0,30.21,NW,305,2.0,6.0,92,0.00,,,0.14,meteohub,2013-07-18 13:02:00,
2013-07-18 07:07:00,66.6,64.2,30.21,NW,323,2.0,6.0,92,0.00,,,0.14,meteohub,2013-07-18 13:07:00,
2013-07-18 07:12:00,66.6,64.2,30.21,NNW,343,3.0,6.0,92,0.00,,,0.14,meteohub,2013-07-18 13:12:00,
2013-07-18 07:17:00,66.7,64.4,30.22,NNW,344,3.0,6.0,92,0.00,,,0.14,meteohub,2013-07-18 13:17:00,
2013-07-18 07:22:00,66.7,64.4,30.22,NNW,344,2.0,6.0,92,0.00,,,0.14,meteohub,2013-07-18 13:22:00,
2013-07-18 07:27:00,66.7,64.4,30.22,NNW,344,2.0,6.0,92,0.00,,,0.14,meteohub,2013-07-18 13:27:00,
2013-07-18 07:33:00,66.7,64.4,30.22,NNW,344,2.0,5.0,92,0.00,,,0.14,meteohub,2013-07-18 13:33:00,
2013-07-18 07:39:00,66.7,64.4,30.22,NNW,345,1.0,5.0,92,0.00,,,0.14,meteohub,2013-07-18 13:39:00,
2013-07-18 07:44:00,66.7,64.4,30.22,NNW,346,5.0,6.0,92,0.00,,,0.14,meteohub,2013-07-18 13:44:00,
2013-07-18 07:49:00,66.7,64.4,30.22,NNW,346,2.0,6.0,92,0.00,,,0.14,meteohub,2013-07-18 13:49:00,
2013-07-18 07:55:00,66.9,64.6,30.22,NNW,346,4.0,5.0,92,0.00,,,0.14,meteohub,2013-07-18 13:55:00,
2013-07-18 08:01:00,66.9,64.6,30.22,NNW,346,2.0,4.0,92,0.00,,,0.14,meteohub,2013-07-18 14:01:00,
2013-07-18 08:07:00,66.9,64.2,30.22,NNW,346,3.0,6.0,91,0.00,,,0.14,meteohub,2013-07-18 14:07:00,
2013-07-18 08:12:00,67.1,64.8,30.22,NNW,346,1.0,6.0,92,0.00,,,0.14,meteohub,2013-07-18 14:12:00,
2013-07-18 08:17:00,67.3,64.6,30.23,NNW,348,5.0,6.0,91,0.00,,,0.14,meteohub,2013-07-18 14:17:00,
2013-07-18 08:22:00,67.5,64.4,30.23,NNW,348,1.0,6.0,90,0.00,,,0.14,meteohub,2013-07-18 14:22:00,
2013-07-18 08:27:00,67.3,64.2,30.23,NNW,348,2.0,6.0,90,0.00,,,0.14,meteohub,2013-07-18 14:27:00,
2013-07-18 08:32:00,67.5,64.8,30.23,NNW,348,0.0,6.0,91,0.00,,,0.14,meteohub,2013-07-18 14:32:00,
2013-07-18 08:37:00,67.6,64.6,30.23,NNW,348,2.0,4.0,90,0.00,,,0.14,meteohub,2013-07-18 14:37:00,
2013-07-18 08:42:00,67.6,64.6,30.23,NNW,348,2.0,3.0,90,0.00,,,0.14,meteohub,2013-07-18 14:42:00,
2013-07-18 08:48:00,67.8,64.4,30.23,NNW,348,0.0,3.0,89,0.00,,,0.14,meteohub,2013-07-18 14:48:00,
2013-07-18 08:54:00,68.0,64.6,30.23,NNW,348,0.0,4.0,89,0.00,,,0.14,meteohub,2013-07-18 14:54:00,
2013-07-18 09:00:00,68.2,64.4,30.23,North,355,1.0,4.0,88,0.00,,,0.14,meteohub,2013-07-18 15:00:00,
2013-07-18 09:06:00,68.4,64.0,30.23,ENE,74,7.0,7.0,86,0.00,,,0.14,meteohub,2013-07-18 15:06:00,
2013-07-18 09:12:00,68.4,64.0,30.24,ENE,73,2.0,8.0,86,0.00,,,0.14,meteohub,2013-07-18 15:12:00,
2013-07-18 09:17:00,68.2,64.2,30.23,ENE,73,1.0,8.0,87,0.00,,,0.14,meteohub,2013-07-18 15:17:00,
2013-07-18 09:22:00,68.4,64.0,30.24,ENE,73,2.0,7.0,86,0.00,,,0.14,meteohub,2013-07-18 15:22:00,
2013-07-18 09:27:00,68.4,64.0,30.24,ENE,73,1.0,4.0,86,0.00,,,0.14,meteohub,2013-07-18 15:27:00,
2013-07-18 09:32:00,68.5,64.6,30.24,ENE,73,2.0,4.0,87,0.00,,,0.14,meteohub,2013-07-18 15:32:00,
2013-07-18 09:37:00,68.2,64.4,30.23,ENE,70,3.0,4.0,88,0.00,,,0.14,meteohub,2013-07-18 15:37:00,
2013-07-18 09:42:00,67.8,64.4,30.23,ENE,70,2.0,5.0,89,0.00,,,0.14,meteohub,2013-07-18 15:42:00,
2013-07-18 09:47:00,67.6,64.2,30.23,ENE,70,3.0,5.0,89,0.00,,,0.14,meteohub,2013-07-18 15:47:00,
2013-07-18 09:52:00,67.6,64.6,30.23,ENE,70,3.0,5.0,90,0.00,,,0.14,meteohub,2013-07-18 15:52:00,
2013-07-18 09:57:00,67.6,64.6,30.23,ENE,70,4.0,5.0,90,0.00,,,0.14,meteohub,2013-07-18 15:57:00,
2013-07-18 10:02:00,67.6,64.6,30.23,NE,44,2.0,5.0,90,0.00,,,0.14,meteohub,2013-07-18 16:02:00,
2013-07-18 10:07:00,67.6,64.6,30.23,NE,43,3.0,6.0,90,0.00,,,0.14,meteohub,2013-07-18 16:07:00,
2013-07-18 10:12:00,67.6,64.6,30.23,NE,43,3.0,6.0,90,0.00,,,0.14,meteohub,2013-07-18 16:12:00,
2013-07-18 10:17:00,67.6,64.6,30.23,NNE,26,3.0,5.0,90,0.00,,,0.14,meteohub,2013-07-18 16:17:00,
2013-07-18 10:22:00,67.6,64.6,30.23,NNE,22,1.0,5.0,90,0.00,,,0.14,meteohub,2013-07-18 16:22:00,
2013-07-18 10:27:00,67.6,64.6,30.23,NNE,22,1.0,5.0,90,0.00,,,0.14,meteohub,2013-07-18 16:27:00,
2013-07-18 10:32:00,67.8,64.8,30.23,NNE,22,2.0,5.0,90,0.00,,,0.14,meteohub,2013-07-18 16:32:00,
2013-07-18 10:37:00,67.8,64.4,30.23,NNE,22,2.0,5.0,89,0.00,,,0.14,meteohub,2013-07-18 16:37:00,
2013-07-18 10:42:00,68.0,64.9,30.23,NNE,22,0.0,4.0,90,0.01,,,0.15,meteohub,2013-07-18 16:42:00,
2013-07-18 10:47:00,68.2,64.8,30.23,NNE,22,2.0,5.0,89,0.01,,,0.15,meteohub,2013-07-18 16:47:00,
2013-07-18 10:52:00,68.2,64.8,30.23,NNE,22,4.0,6.0,89,0.01,,,0.15,meteohub,2013-07-18 16:52:00,
2013-07-18 10:57:00,67.8,64.4,30.23,NNE,22,3.0,7.0,89,0.01,,,0.15,meteohub,2013-07-18 16:57:00,
2013-07-18 11:02:00,67.8,64.8,30.23,NNE,22,5.0,7.0,90,0.01,,,0.15,meteohub,2013-07-18 17:02:00,
2013-07-18 11:07:00,67.8,64.8,30.23,NNE,22,3.0,7.0,90,0.02,,,0.16,meteohub,2013-07-18 17:07:00,
2013-07-18 11:12:00,67.8,65.1,30.23,NNE,22,1.0,6.0,91,0.02,,,0.16,meteohub,2013-07-18 17:12:00,
2013-07-18 11:17:00,68.2,65.5,30.23,NNE,22,2.0,6.0,91,0.02,,,0.16,meteohub,2013-07-18 17:17:00,
2013-07-18 11:22:00,67.8,65.1,30.23,NNE,22,2.0,6.0,91,0.02,,,0.16,meteohub,2013-07-18 17:22:00,
2013-07-18 11:27:00,68.0,65.3,30.23,NNE,22,1.0,5.0,91,0.03,,,0.17,meteohub,2013-07-18 17:27:00,
2013-07-18 11:32:00,68.0,65.3,30.23,NNE,22,1.0,5.0,91,0.04,,,0.18,meteohub,2013-07-18 17:32:00,
2013-07-18 11:37:00,68.0,65.3,30.23,NNE,22,1.0,3.0,91,0.04,,,0.18,meteohub,2013-07-18 17:37:00,
2013-07-18 11:42:00,68.0,65.3,30.23,NNE,22,0.0,2.0,91,0.03,,,0.18,meteohub,2013-07-18 17:42:00,
2013-07-18 11:47:00,68.0,65.3,30.22,NNE,22,0.0,2.0,91,0.04,,,0.19,meteohub,2013-07-18 17:47:00,
2013-07-18 11:52:00,68.0,64.9,30.22,NNE,22,1.0,1.0,90,0.04,,,0.19,meteohub,2013-07-18 17:52:00,
2013-07-18 11:57:00,68.0,65.3,30.22,NNE,22,0.0,2.0,91,0.04,,,0.19,meteohub,2013-07-18 17:57:00,
2013-07-18 12:02:00,67.8,65.5,30.22,NNE,22,1.0,3.0,92,0.04,,,0.20,meteohub,2013-07-18 18:02:00,
2013-07-18 12:08:00,68.2,65.8,30.22,NNE,22,1.0,3.0,92,0.04,,,0.20,meteohub,2013-07-18 18:08:00,
2013-07-18 12:14:00,67.8,65.1,30.22,NNE,22,2.0,3.0,91,0.04,,,0.20,meteohub,2013-07-18 18:14:00,
2013-07-18 12:20:00,67.8,65.5,30.22,NNE,22,2.0,3.0,92,0.04,,,0.20,meteohub,2013-07-18 18:20:00,
2013-07-18 12:26:00,68.0,65.7,30.22,NNE,21,2.0,4.0,92,0.05,,,0.22,meteohub,2013-07-18 18:26:00,
2013-07-18 12:31:00,67.8,65.1,30.22,NNE,20,3.0,5.0,91,0.04,,,0.22,meteohub,2013-07-18 18:31:00,
2013-07-18 12:37:00,68.2,65.5,30.22,NNE,20,4.0,5.0,91,0.04,,,0.22,meteohub,2013-07-18 18:37:00,
2013-07-18 12:42:00,68.2,65.8,30.21,North,9,4.0,5.0,92,0.05,,,0.23,meteohub,2013-07-18 18:42:00,
2013-07-18 12:47:00,68.5,66.2,30.21,North,9,3.0,5.0,92,0.04,,,0.23,meteohub,2013-07-18 18:47:00,
2013-07-18 12:52:00,68.7,66.0,30.21,North,0,2.0,6.0,91,0.04,,,0.23,meteohub,2013-07-18 18:52:00,
2013-07-18 12:57:00,68.7,65.7,30.21,North,0,3.0,6.0,90,0.03,,,0.23,meteohub,2013-07-18 18:57:00,
2013-07-18 13:02:00,69.1,66.0,30.21,North,0,1.0,6.0,90,0.03,,,0.23,meteohub,2013-07-18 19:02:00,
2013-07-18 13:07:00,69.3,66.2,30.21,North,0,2.0,5.0,90,0.03,,,0.23,meteohub,2013-07-18 19:07:00,
2013-07-18 13:12:00,69.4,66.0,30.21,North,0,1.0,5.0,89,0.03,,,0.23,meteohub,2013-07-18 19:12:00,
2013-07-18 13:17:00,69.4,66.0,30.21,North,0,2.0,5.0,89,0.03,,,0.23,meteohub,2013-07-18 19:17:00,
2013-07-18 13:22:00,69.6,65.8,30.20,North,0,2.0,4.0,88,0.02,,,0.23,meteohub,2013-07-18 19:22:00,
2013-07-18 13:27:00,70.0,66.0,30.21,North,0,2.0,4.0,87,0.01,,,0.23,meteohub,2013-07-18 19:27:00,
2013-07-18 13:32:00,70.2,66.4,30.21,North,0,4.0,4.0,88,0.01,,,0.23,meteohub,2013-07-18 19:32:00,
2013-07-18 13:37:00,70.3,66.2,30.21,North,0,2.0,5.0,87,0.01,,,0.23,meteohub,2013-07-18 19:37:00,
2013-07-18 13:42:00,70.3,66.0,30.20,North,0,2.0,5.0,86,0.00,,,0.23,meteohub,2013-07-18 19:42:00,
2013-07-18 13:47:00,70.5,66.4,30.20,North,5,0.0,5.0,87,0.00,,,0.23,meteohub,2013-07-18 19:47:00,
2013-07-18 13:52:00,70.5,65.8,30.20,North,5,0.0,4.0,85,0.02,,,0.25,meteohub,2013-07-18 19:52:00,
2013-07-18 13:57:00,70.5,65.5,30.20,North,5,0.0,4.0,84,0.02,,,0.25,meteohub,2013-07-18 19:57:00,
2013-07-18 14:02:00,70.9,66.6,30.20,North,5,2.0,4.0,86,0.02,,,0.25,meteohub,2013-07-18 20:02:00,
2013-07-18 14:08:00,70.9,66.2,30.20,North,5,0.0,4.0,85,0.02,,,0.25,meteohub,2013-07-18 20:08:00,
2013-07-18 14:14:00,71.2,66.2,30.20,North,5,0.0,4.0,84,0.02,,,0.25,meteohub,2013-07-18 20:14:00,
2013-07-18 14:20:00,71.4,66.7,30.19,North,5,0.0,4.0,85,0.02,,,0.25,meteohub,2013-07-18 20:20:00,
2013-07-18 14:25:00,72.1,67.5,30.19,North,5,1.0,3.0,85,0.02,,,0.25,meteohub,2013-07-18 20:25:00,
2013-07-18 14:31:00,72.3,65.8,30.19,North,5,0.0,3.0,80,0.02,,,0.25,meteohub,2013-07-18 20:31:00,
2013-07-18 14:37:00,72.1,64.9,30.19,North,5,0.0,3.0,78,0.02,,,0.25,meteohub,2013-07-18 20:37:00,
2013-07-18 14:42:00,72.7,65.8,30.19,North,5,0.0,2.0,79,0.02,,,0.25,meteohub,2013-07-18 20:42:00,
2013-07-18 14:47:00,72.9,66.0,30.18,North,5,0.0,3.0,79,0.02,,,0.25,meteohub,2013-07-18 20:47:00,
2013-07-18 14:52:00,72.9,65.7,30.18,North,5,3.0,3.0,78,0.00,,,0.25,meteohub,2013-07-18 20:52:00,
2013-07-18 14:58:00,72.9,66.0,30.18,North,5,0.0,3.0,79,0.00,,,0.25,meteohub,2013-07-18 20:58:00,
2013-07-18 15:04:00,73.8,66.4,30.18,North,5,3.0,3.0,78,0.00,,,0.25,meteohub,2013-07-18 21:04:00,
2013-07-18 15:10:00,74.1,66.4,30.17,North,5,2.0,4.0,77,0.00,,,0.25,meteohub,2013-07-18 21:10:00,
2013-07-18 15:16:00,73.9,66.2,30.17,North,5,1.0,4.0,77,0.00,,,0.25,meteohub,2013-07-18 21:16:00,
2013-07-18 15:22:00,73.9,65.8,30.17,North,5,1.0,4.0,76,0.00,,,0.25,meteohub,2013-07-18 21:22:00,
2013-07-18 15:27:00,73.8,64.6,30.17,North,5,0.0,4.0,73,0.00,,,0.25,meteohub,2013-07-18 21:27:00,
2013-07-18 15:33:00,74.5,66.0,30.17,North,5,0.0,4.0,75,0.00,,,0.25,meteohub,2013-07-18 21:33:00,
2013-07-18 15:38:00,75.0,65.3,30.17,North,5,0.0,5.0,72,0.00,,,0.25,meteohub,2013-07-18 21:38:00,
2013-07-18 15:44:00,75.4,64.9,30.17,NE,54,2.0,5.0,70,0.00,,,0.25,meteohub,2013-07-18 21:44:00,
2013-07-18 15:50:00,75.6,66.4,30.16,NE,54,1.0,5.0,73,0.00,,,0.25,meteohub,2013-07-18 21:50:00,
2013-07-18 15:56:00,75.2,66.0,30.16,NE,50,4.0,5.0,73,0.00,,,0.25,meteohub,2013-07-18 21:56:00,
2013-07-18 16:02:00,75.6,66.4,30.16,NE,50,3.0,6.0,73,0.00,,,0.25,meteohub,2013-07-18 22:02:00,
2013-07-18 16:07:00,75.4,66.2,30.16,North,5,3.0,6.0,73,0.00,,,0.25,meteohub,2013-07-18 22:07:00,
2013-07-18 16:12:00,75.2,66.0,30.16,North,350,4.0,6.0,73,0.00,,,0.25,meteohub,2013-07-18 22:12:00,
2013-07-18 16:18:00,75.2,66.4,30.16,North,0,3.0,6.0,74,0.00,,,0.25,meteohub,2013-07-18 22:18:00,
2013-07-18 16:24:00,74.7,66.6,30.17,East,91,15.0,15.0,76,0.00,,,0.25,meteohub,2013-07-18 22:24:00,
2013-07-18 16:30:00,70.3,64.9,30.18,ESE,118,4.0,21.0,83,0.03,,,0.28,meteohub,2013-07-18 22:30:00,
2013-07-18 16:35:00,68.4,64.9,30.17,ESE,118,7.0,21.0,89,0.28,,,0.53,meteohub,2013-07-18 22:35:00,
2013-07-18 16:41:00,67.8,64.8,30.17,ESE,110,0.0,16.0,90,0.33,,,0.58,meteohub,2013-07-18 22:41:00,
2013-07-18 16:47:00,67.8,65.1,30.17,ESE,110,0.0,8.0,91,0.34,,,0.59,meteohub,2013-07-18 22:47:00,
2013-07-18 16:52:00,68.4,65.7,30.16,ESE,110,2.0,8.0,91,0.34,,,0.59,meteohub,2013-07-18 22:52:00,
2013-07-18 16:57:00,68.5,65.8,30.16,ESE,110,0.0,3.0,91,0.35,,,0.60,meteohub,2013-07-18 22:57:00,
2013-07-18 17:03:00,68.7,65.3,30.16,ESE,110,0.0,3.0,89,0.35,,,0.60,meteohub,2013-07-18 23:03:00,
2013-07-18 17:09:00,68.9,65.5,30.16,ESE,110,0.0,3.0,89,0.35,,,0.60,meteohub,2013-07-18 23:09:00,
2013-07-18 17:14:00,69.4,66.4,30.16,ESE,110,1.0,2.0,90,0.35,,,0.60,meteohub,2013-07-18 23:14:00,
2013-07-18 17:20:00,69.6,65.8,30.16,ESE,110,2.0,2.0,88,0.35,,,0.60,meteohub,2013-07-18 23:20:00,
2013-07-18 17:26:00,69.6,65.7,30.16,ESE,110,0.0,3.0,87,0.26,,,0.60,meteohub,2013-07-18 23:26:00,
2013-07-18 17:32:00,69.6,65.8,30.16,ESE,110,1.0,4.0,88,0.15,,,0.61,meteohub,2013-07-18 23:32:00,
2013-07-18 17:37:00,69.6,66.2,30.16,ESE,110,0.0,4.0,89,0.06,,,0.61,meteohub,2013-07-18 23:37:00,
2013-07-18 17:42:00,69.4,66.0,30.15,ESE,110,0.0,4.0,89,0.02,,,0.61,meteohub,2013-07-18 23:42:00,
2013-07-18 17:48:00,69.4,66.4,30.15,ESE,110,0.0,4.0,90,0.03,,,0.62,meteohub,2013-07-18 23:48:00,
2013-07-18 17:54:00,69.6,66.9,30.15,ESE,110,0.0,4.0,91,0.03,,,0.62,meteohub,2013-07-18 23:54:00,
2013-07-18 18:01:00,69.6,66.9,30.15,ESE,110,0.0,3.0,91,0.03,,,0.63,meteohub,2013-07-19 00:01:00,
2013-07-18 18:06:00,69.4,66.7,30.15,ESE,110,0.0,4.0,91,0.03,,,0.63,meteohub,2013-07-19 00:06:00,
2013-07-18 18:12:00,69.4,66.7,30.15,ESE,110,0.0,4.0,91,0.03,,,0.63,meteohub,2013-07-19 00:12:00,
2013-07-18 18:17:00,69.4,66.7,30.15,ESE,110,0.0,3.0,91,0.03,,,0.63,meteohub,2013-07-19 00:17:00,
2013-07-18 18:22:00,69.8,67.1,30.15,ESE,110,0.0,1.0,91,0.03,,,0.63,meteohub,2013-07-19 00:22:00,
2013-07-18 18:28:00,69.6,66.9,30.15,ESE,110,1.0,2.0,91,0.03,,,0.63,meteohub,2013-07-19 00:28:00,
2013-07-18 18:34:00,69.6,66.9,30.15,ESE,110,0.0,2.0,91,0.02,,,0.63,meteohub,2013-07-19 00:34:00,
2013-07-18 18:39:00,69.6,66.9,30.14,ESE,110,0.0,2.0,91,0.02,,,0.63,meteohub,2013-07-19 00:39:00,
2013-07-18 18:45:00,69.6,66.6,30.14,ESE,110,0.0,1.0,90,0.01,,,0.63,meteohub,2013-07-19 00:45:00,
2013-07-18 18:51:00,69.8,66.7,30.15,ESE,110,0.0,1.0,90,0.00,,,0.63,meteohub,2013-07-19 00:51:00,
2013-07-18 18:57:00,70.2,67.1,30.14,ESE,110,0.0,0.0,90,0.00,,,0.63,meteohub,2013-07-19 00:57:00,
2013-07-18 19:02:00,70.2,67.1,30.14,ESE,110,0.0,0.0,90,0.00,,,0.63,meteohub,2013-07-19 01:02:00,
2013-07-18 19:07:00,70.2,66.7,30.14,ESE,110,0.0,0.0,89,0.00,,,0.63,meteohub,2013-07-19 01:07:00,
2013-07-18 19:12:00,70.3,66.9,30.14,ESE,110,0.0,0.0,89,0.00,,,0.63,meteohub,2013-07-19 01:12:00,
2013-07-18 19:17:00,70.3,66.9,30.14,ESE,110,0.0,1.0,89,0.00,,,0.63,meteohub,2013-07-19 01:17:00,
2013-07-18 19:22:00,70.3,66.6,30.14,ESE,110,0.0,1.0,88,0.00,,,0.63,meteohub,2013-07-19 01:22:00,
2013-07-18 19:27:00,70.5,67.5,30.14,ESE,110,0.0,1.0,90,0.00,,,0.63,meteohub,2013-07-19 01:27:00,
2013-07-18 19:32:00,70.3,67.3,30.14,ESE,110,1.0,1.0,90,0.00,,,0.63,meteohub,2013-07-19 01:32:00,
2013-07-18 19:37:00,70.3,66.9,30.14,ESE,110,2.0,3.0,89,0.00,,,0.63,meteohub,2013-07-19 01:37:00,
2013-07-18 19:42:00,70.2,67.1,30.13,ESE,110,0.0,3.0,90,0.00,,,0.63,meteohub,2013-07-19 01:42:00,
2013-07-18 19:48:00,70.2,67.1,30.14,ESE,110,0.0,3.0,90,0.00,,,0.63,meteohub,2013-07-19 01:48:00,
2013-07-18 19:54:00,70.0,66.6,30.13,ESE,110,0.0,2.0,89,0.00,,,0.63,meteohub,2013-07-19 01:54:00,
2013-07-18 20:00:00,70.2,67.1,30.13,ESE,110,0.0,2.0,90,0.00,,,0.63,meteohub,2013-07-19 02:00:00,
2013-07-18 20:06:00,70.2,66.7,30.13,ESE,110,1.0,2.0,89,0.00,,,0.63,meteohub,2013-07-19 02:06:00,
2013-07-18 20:11:00,70.2,66.7,30.13,ESE,110,3.0,3.0,89,0.00,,,0.63,meteohub,2013-07-19 02:11:00,
2013-07-18 20:17:00,70.3,66.9,30.13,ESE,110,1.0,3.0,89,0.00,,,0.63,meteohub,2013-07-19 02:17:00,
2013-07-18 20:22:00,70.3,66.6,30.14,ESE,110,2.0,3.0,88,0.00,,,0.63,meteohub,2013-07-19 02:22:00,
2013-07-18 20:27:00,70.3,66.2,30.14,ESE,110,0.0,3.0,87,0.00,,,0.63,meteohub,2013-07-19 02:27:00,
2013-07-18 20:32:00,70.3,66.2,30.14,ESE,110,0.0,4.0,87,0.00,,,0.63,meteohub,2013-07-19 02:32:00,
2013-07-18 20:37:00,70.2,66.0,30.14,ESE,118,5.0,5.0,87,0.00,,,0.63,meteohub,2013-07-19 02:37:00,
2013-07-18 20:42:00,70.2,65.8,30.14,ESE,123,4.0,7.0,86,0.00,,,0.63,meteohub,2013-07-19 02:42:00,
2013-07-18 20:47:00,70.0,65.7,30.14,SE,132,2.0,7.0,86,0.00,,,0.63,meteohub,2013-07-19 02:47:00,
2013-07-18 20:52:00,69.8,65.8,30.14,SE,126,4.0,7.0,87,0.00,,,0.63,meteohub,2013-07-19 02:52:00,
2013-07-18 20:57:00,69.8,65.8,30.14,SE,130,4.0,7.0,87,0.00,,,0.63,meteohub,2013-07-19 02:57:00,
2013-07-18 21:02:00,69.6,65.7,30.14,SE,130,2.0,6.0,87,0.00,,,0.63,meteohub,2013-07-19 03:02:00,
2013-07-18 21:08:00,69.6,65.8,30.14,ESE,122,1.0,6.0,88,0.00,,,0.63,meteohub,2013-07-19 03:08:00,
2013-07-18 21:14:00,69.6,65.8,30.15,ESE,122,0.0,7.0,88,0.00,,,0.63,meteohub,2013-07-19 03:14:00,
2013-07-18 21:20:00,69.6,66.2,30.15,ESE,122,0.0,4.0,89,0.00,,,0.63,meteohub,2013-07-19 03:20:00,
2013-07-18 21:26:00,69.6,66.2,30.15,ESE,122,3.0,3.0,89,0.00,,,0.63,meteohub,2013-07-19 03:26:00,
2013-07-18 21:32:00,69.8,66.0,30.15,ESE,122,0.0,3.0,88,0.00,,,0.63,meteohub,2013-07-19 03:32:00,
2013-07-18 21:37:00,69.8,66.0,30.15,ESE,122,1.0,3.0,88,0.00,,,0.63,meteohub,2013-07-19 03:37:00,
2013-07-18 21:42:00,69.8,66.0,30.15,ESE,122,0.0,3.0,88,0.00,,,0.63,meteohub,2013-07-19 03:42:00,
2013-07-18 21:48:00,70.0,66.2,30.16,ESE,122,0.0,1.0,88,0.00,,,0.63,meteohub,2013-07-19 03:48:00,
2013-07-18 21:53:00,70.0,66.2,30.16,ESE,122,0.0,2.0,88,0.00,,,0.63,meteohub,2013-07-19 03:53:00,
2013-07-18 21:59:00,69.8,65.8,30.16,ESE,122,0.0,2.0,87,0.00,,,0.63,meteohub,2013-07-19 03:59:00,
2013-07-18 22:01:00,69.8,65.8,30.16,ESE,122,0.0,1.0,87,0.00,,,0.63,meteohub,2013-07-19 04:01:00,
2013-07-18 22:02:00,70.0,66.0,30.16,ESE,122,0.0,1.0,87,0.00,,,0.63,meteohub,2013-07-19 04:02:00,
2013-07-18 22:07:00,70.0,66.2,30.17,ESE,122,1.0,2.0,88,0.00,,,0.63,meteohub,2013-07-19 04:07:00,
2013-07-18 22:08:00,70.0,66.2,30.17,ESE,122,0.0,2.0,88,0.00,,,0.63,meteohub,2013-07-19 04:08:00,
2013-07-18 22:14:00,69.6,65.8,30.17,ESE,122,0.0,2.0,88,0.00,,,0.63,meteohub,2013-07-19 04:14:00,
2013-07-18 22:20:00,69.6,66.2,30.17,ESE,122,1.0,2.0,89,0.00,,,0.63,meteohub,2013-07-19 04:20:00,
2013-07-18 22:25:00,69.6,66.2,30.17,ESE,122,1.0,2.0,89,0.00,,,0.63,meteohub,2013-07-19 04:25:00,
2013-07-18 22:30:00,69.4,66.0,30.17,ESE,122,0.0,2.0,89,0.00,,,0.63,meteohub,2013-07-19 04:30:00,
2013-07-18 22:36:00,69.4,65.7,30.17,ESE,122,2.0,3.0,88,0.00,,,0.63,meteohub,2013-07-19 04:36:00,
2013-07-18 22:42:00,69.4,65.7,30.17,ESE,122,0.0,3.0,88,0.00,,,0.63,meteohub,2013-07-19 04:42:00,
2013-07-18 22:47:00,69.4,65.7,30.17,ESE,122,0.0,3.0,88,0.00,,,0.63,meteohub,2013-07-19 04:47:00,
2013-07-18 22:52:00,69.6,65.8,30.17,ESE,122,0.0,3.0,88,0.00,,,0.63,meteohub,2013-07-19 04:52:00,
2013-07-18 22:57:00,69.4,65.7,30.17,ESE,122,0.0,3.0,88,0.00,,,0.63,meteohub,2013-07-19 04:57:00,
2013-07-18 23:03:00,69.6,65.8,30.17,ESE,122,0.0,0.0,88,0.00,,,0.63,meteohub,2013-07-19 05:03:00,
2013-07-18 23:09:00,69.6,65.7,30.17,ESE,122,0.0,0.0,87,0.00,,,0.63,meteohub,2013-07-19 05:09:00,
2013-07-18 23:15:00,69.6,65.3,30.17,ESE,122,0.0,0.0,86,0.00,,,0.63,meteohub,2013-07-19 05:15:00,
2013-07-18 23:20:00,69.8,65.1,30.17,ESE,122,0.0,0.0,85,0.00,,,0.63,meteohub,2013-07-19 05:20:00,
2013-07-18 23:26:00,69.8,65.5,30.17,ESE,122,0.0,0.0,86,0.00,,,0.63,meteohub,2013-07-19 05:26:00,
2013-07-18 23:32:00,69.8,65.5,30.17,ESE,122,0.0,0.0,86,0.00,,,0.63,meteohub,2013-07-19 05:32:00,
2013-07-18 23:37:00,69.8,65.5,30.17,ESE,122,0.0,0.0,86,0.00,,,0.63,meteohub,2013-07-19 05:37:00,
2013-07-18 23:43:00,70.0,65.3,30.17,ESE,122,0.0,0.0,85,0.00,,,0.63,meteohub,2013-07-19 05:43:00,
2013-07-18 23:48:00,70.0,65.3,30.17,ESE,122,0.0,0.0,85,0.00,,,0.63,meteohub,2013-07-19 05:48:00,
2013-07-18 23:54:00,70.0,64.9,30.17,ESE,122,0.0,0.0,84,0.00,,,0.63,meteohub,2013-07-19 05:54:00,